Corral City, Texas
Current Conditions -  °F | °C
As of 9:10 AM on Saturday 20 Dec 2014 (Local Time) from KDTO Reporting Station
Haze Haze  
Wind Chill: 40°   Ceiling: 1400
Heat Index: 43°   Visibility: 3mi
Dew Point: 41°   Wind: 5mph
Humidity: 93%   Direction: 10°N
Pressure: 30.26"   Gusts: NA
Location:  33.108°N, 97.1641°W
Report Text: KDTO 201510Z 01004KT 3SM BR FEW006 OVC014 06/05 A3026 RMK AO2 T00610050
Loading
Personal Weather Stations






























Interactive Weather Map New forecast layout! Learn more

10-Day Weather Forecast

Advertisements
Track Severe Weather on mobile